createdAt,value
2019-04-23T00:01:49.972Z,12.28
2019-04-23T00:04:32.942Z,12.95
2019-04-23T00:07:22.618Z,12.93
2019-04-23T00:09:46.675Z,12.33
2019-04-23T00:12:38.086Z,12.95
2019-04-23T00:15:20.175Z,13.85
2019-04-23T00:17:48.132Z,13.22
2019-04-23T00:20:25.904Z,14.03
2019-04-23T00:23:10.924Z,13.65
2019-04-23T00:26:24.020Z,13.83
2019-04-23T00:28:54.705Z,14.25
2019-04-23T00:31:26.127Z,12.95
2019-04-23T00:34:02.236Z,13.55
2019-04-23T00:39:31.587Z,12.75
2019-04-23T00:41:58.739Z,13.28
2019-04-23T00:44:45.945Z,13.10
2019-04-23T00:47:26.806Z,13.03
2019-04-23T00:52:43.796Z,12.85
2019-04-23T00:55:22.132Z,12.05
2019-04-23T00:58:06.232Z,11.60
2019-04-23T01:03:20.033Z,12.60
2019-04-23T01:05:58.832Z,12.07
2019-04-23T01:08:41.390Z,12.30
2019-04-23T01:13:56.629Z,12.20
2019-04-23T01:16:33.229Z,13.75
2019-04-23T01:19:37.515Z,13.43
2019-04-23T01:21:57.940Z,14.43
2019-04-23T01:25:13.891Z,12.78
2019-04-23T01:28:15.963Z,15.68
2019-04-23T01:31:05.246Z,14.50
2019-04-23T01:33:39.101Z,16.20
2019-04-23T01:36:21.776Z,16.48
2019-04-23T01:38:54.992Z,18.42
2019-04-23T01:41:33.725Z,15.43
2019-04-23T01:44:14.418Z,15.72
2019-04-23T01:46:50.745Z,18.05
2019-04-23T01:49:37.343Z,17.60
2019-04-23T01:52:10.721Z,28.30
2019-04-23T01:54:45.467Z,19.45
2019-04-23T01:57:30.710Z,20.72
2019-04-23T02:00:08.548Z,18.60
2019-04-23T02:02:49.585Z,17.17
2019-04-23T02:05:32.549Z,16.70
2019-04-23T02:13:33.842Z,17.47
2019-04-23T02:16:06.710Z,17.27
2019-04-23T02:18:49.332Z,16.60
2019-04-23T02:21:22.577Z,16.00
2019-04-23T02:24:10.950Z,15.83
2019-04-23T02:27:05.814Z,15.85
2019-04-23T02:29:46.566Z,21.05
2019-04-23T02:34:58.121Z,16.30
2019-04-23T02:37:45.952Z,16.82
2019-04-23T02:40:23.660Z,17.70
2019-04-23T02:43:03.541Z,14.68
2019-04-23T02:45:43.982Z,17.75
2019-04-23T02:53:39.963Z,15.90
2019-04-23T03:01:27.936Z,48.60
2019-04-23T03:04:10.361Z,19.10
2019-04-23T03:09:27.811Z,23.70
2019-04-23T03:12:07.822Z,25.40
2019-04-23T03:14:41.669Z,26.77
2019-04-23T03:17:47.294Z,25.90
2019-04-23T03:23:27.315Z,24.67
2019-04-23T03:26:13.737Z,23.98
2019-04-23T03:32:50.794Z,22.00
2019-04-23T03:34:51.932Z,18.92
2019-04-23T03:39:30.528Z,19.05
2019-04-23T03:42:11.677Z,18.62
2019-04-23T03:44:47.864Z,19.10
2019-04-23T03:47:24.863Z,20.77
2019-04-23T03:50:05.211Z,21.60
2019-04-23T03:55:32.326Z,27.20
2019-04-23T03:58:07.006Z,28.52
2019-04-23T04:03:32.341Z,31.20
2019-04-23T04:08:36.031Z,30.00
2019-04-23T04:11:19.194Z,27.30
2019-04-23T04:16:42.932Z,28.30
2019-04-23T04:19:24.552Z,24.50
2019-04-23T04:30:00.947Z,19.67
2019-04-23T04:32:43.175Z,19.30
2019-04-23T04:43:24.861Z,17.75
2019-04-23T04:46:05.419Z,18.40
2019-04-23T04:48:33.289Z,18.65
2019-04-23T05:01:50.917Z,17.90
2019-04-23T05:04:48.422Z,17.10
2019-04-23T05:15:03.215Z,18.27
2019-04-23T05:20:46.886Z,17.92
2019-04-23T05:23:28.116Z,17.40
2019-04-23T05:26:01.683Z,18.42
2019-04-23T05:28:44.577Z,16.97
2019-04-23T05:31:18.908Z,16.77
2019-04-23T05:34:03.132Z,16.30
2019-04-23T05:36:41.676Z,16.90
2019-04-23T05:39:20.809Z,16.85
2019-04-23T05:41:57.202Z,17.02
2019-04-23T05:44:50.258Z,16.57
2019-04-23T05:47:18.276Z,16.65
2019-04-23T05:49:55.049Z,17.90
2019-04-23T05:52:36.044Z,17.75
2019-04-23T05:55:09.115Z,17.65
2019-04-23T05:57:52.052Z,16.55
2019-04-23T06:00:34.442Z,15.68
2019-04-23T06:03:14.809Z,15.75
2019-04-23T06:05:59.763Z,15.53
2019-04-23T06:08:33.600Z,16.32
2019-04-23T06:11:08.623Z,16.77
2019-04-23T06:13:56.159Z,17.50
2019-04-23T06:24:29.226Z,17.37
2019-04-23T06:27:06.768Z,17.67
2019-04-23T06:29:39.441Z,18.17
2019-04-23T06:32:22.886Z,17.40
2019-04-23T06:35:01.522Z,16.87
2019-04-23T06:38:03.357Z,16.52
2019-04-23T06:40:25.276Z,17.15
2019-04-23T06:43:30.317Z,17.70
2019-04-23T06:46:04.855Z,16.25
2019-04-23T06:49:02.382Z,16.32
2019-04-23T06:51:27.389Z,16.35
2019-04-23T06:54:08.739Z,15.85
2019-04-23T06:56:54.358Z,15.40
2019-04-23T07:02:07.942Z,15.68
2019-04-23T07:04:43.485Z,16.45
2019-04-23T07:07:37.913Z,17.25
2019-04-23T07:10:09.821Z,15.88
2019-04-23T07:12:38.588Z,15.83
2019-04-23T07:15:32.182Z,14.78
2019-04-23T07:17:57.360Z,15.85
2019-04-23T07:20:33.492Z,15.93
2019-04-23T07:23:26.080Z,15.45
2019-04-23T07:25:56.761Z,16.52
2019-04-23T07:28:37.258Z,16.10
2019-04-23T07:31:26.306Z,16.32
2019-04-23T07:33:57.879Z,17.35
2019-04-23T07:39:17.548Z,17.07
2019-04-23T07:45:18.930Z,16.57
2019-04-23T07:50:48.000Z,16.37
2019-04-23T07:56:11.114Z,16.90
2019-04-23T07:58:39.904Z,15.68
2019-04-23T08:01:18.403Z,14.58
2019-04-23T08:04:04.680Z,15.90
2019-04-23T08:06:46.363Z,15.72
2019-04-23T08:09:28.105Z,15.95
2019-04-23T08:12:07.893Z,16.05
2019-04-23T08:14:50.820Z,15.93
2019-04-23T08:17:28.115Z,16.55
2019-04-23T08:20:16.873Z,15.20
2019-04-23T08:22:57.253Z,16.25
2019-04-23T08:26:02.456Z,16.15
2019-04-23T08:28:41.948Z,16.23
2019-04-23T08:31:15.157Z,16.65
2019-04-23T08:33:57.757Z,15.38
2019-04-23T08:36:34.467Z,15.28
2019-04-23T08:39:13.770Z,15.80
2019-04-23T08:42:09.424Z,15.58
2019-04-23T08:47:26.225Z,16.15
2019-04-23T08:50:04.888Z,15.18
2019-04-23T08:52:43.095Z,14.90
2019-04-23T08:58:04.658Z,15.68
2019-04-23T09:01:02.098Z,16.48
2019-04-23T09:06:05.869Z,16.55
2019-04-23T09:08:37.377Z,16.55
2019-04-23T09:11:37.043Z,17.12
2019-04-23T09:13:57.457Z,16.15
2019-04-23T09:16:44.651Z,16.70
2019-04-23T09:19:23.699Z,17.70
2019-04-23T09:22:00.463Z,17.70
2019-04-23T09:24:44.878Z,16.60
2019-04-23T09:27:28.345Z,16.50
2019-04-23T09:30:00.818Z,17.20
2019-04-23T09:32:54.244Z,16.02
2019-04-23T09:35:52.729Z,15.80
2019-04-23T09:38:45.005Z,15.43
2019-04-23T09:44:47.210Z,16.60
2019-04-23T09:47:29.714Z,16.85
2019-04-23T09:50:08.964Z,16.57
2019-04-23T09:55:29.499Z,16.17
2019-04-23T09:58:02.281Z,15.15
2019-04-23T10:00:44.890Z,15.28
2019-04-23T10:03:09.221Z,15.90
2019-04-23T10:05:46.392Z,15.68
2019-04-23T10:08:23.123Z,14.28
2019-04-23T10:10:55.424Z,15.00
2019-04-23T10:13:34.463Z,14.23
2019-04-23T10:16:15.407Z,14.73
2019-04-23T10:18:53.266Z,15.58
2019-04-23T10:21:31.180Z,14.45
2019-04-23T10:24:09.551Z,15.15
2019-04-23T10:26:48.019Z,16.00
2019-04-23T10:29:31.910Z,16.00
2019-04-23T10:32:09.492Z,16.05
2019-04-23T10:34:59.173Z,15.88
2019-04-23T10:37:39.398Z,16.77
2019-04-23T10:40:07.956Z,17.55
2019-04-23T10:42:45.700Z,16.80
2019-04-23T10:46:02.008Z,16.97
2019-04-23T10:49:41.930Z,17.40
2019-04-23T10:54:41.358Z,18.15
2019-04-23T10:59:47.374Z,18.12
2019-04-23T11:05:16.374Z,18.30
2019-04-23T11:07:43.938Z,17.65
2019-04-23T11:10:25.856Z,19.42
2019-04-23T11:13:31.502Z,18.65
2019-04-23T11:16:38.579Z,18.57
2019-04-23T11:21:33.897Z,18.50
2019-04-23T11:24:20.990Z,18.05
2019-04-23T11:26:51.067Z,18.45
2019-04-23T11:29:33.835Z,18.40
2019-04-23T11:32:30.634Z,17.40
2019-04-23T11:35:06.739Z,17.27
2019-04-23T11:37:43.876Z,17.02
2019-04-23T11:40:08.722Z,17.48
2019-04-23T11:42:49.628Z,18.42
2019-04-23T11:45:36.665Z,19.60
2019-04-23T11:48:22.392Z,19.10
2019-04-23T11:51:20.123Z,18.40
2019-04-23T11:56:02.782Z,17.10
2019-04-23T12:01:52.743Z,15.20
2019-04-23T12:04:59.200Z,17.07
2019-04-23T12:07:41.178Z,17.70
2019-04-23T12:13:26.999Z,14.90
2019-04-23T12:16:00.636Z,15.28
2019-04-23T12:18:46.268Z,15.43
2019-04-23T12:21:27.829Z,15.03
2019-04-23T12:24:24.741Z,14.60
2019-04-23T12:26:50.623Z,14.53
2019-04-23T12:29:27.824Z,14.13
2019-04-23T12:32:35.497Z,15.35
2019-04-23T12:37:56.248Z,14.87
2019-04-23T12:45:50.451Z,15.65
2019-04-23T12:48:46.734Z,13.62
2019-04-23T12:51:28.274Z,14.15
2019-04-23T12:53:49.136Z,13.48
2019-04-23T12:56:48.792Z,13.80
2019-04-23T12:59:19.044Z,13.80
2019-04-23T13:01:57.633Z,13.25
2019-04-23T13:04:35.037Z,13.30
2019-04-23T13:07:17.168Z,13.15
2019-04-23T13:09:58.194Z,12.95
2019-04-23T13:15:17.320Z,13.53
2019-04-23T13:17:55.553Z,14.30
2019-04-23T13:20:39.953Z,14.45
2019-04-23T13:23:34.765Z,13.75
2019-04-23T13:28:45.208Z,14.45
2019-04-23T13:31:20.445Z,14.83
2019-04-23T13:34:07.104Z,15.93
2019-04-23T13:36:45.054Z,15.63
2019-04-23T13:39:24.832Z,13.98
2019-04-23T13:42:07.902Z,15.38
2019-04-23T13:44:42.418Z,14.50
2019-04-23T13:47:29.837Z,14.03
2019-04-23T13:50:10.170Z,15.55
2019-04-23T13:55:37.896Z,15.83
2019-04-23T13:58:08.282Z,15.80
2019-04-23T14:01:01.352Z,15.98
2019-04-23T14:03:30.386Z,14.53
2019-04-23T14:06:24.505Z,14.45
2019-04-23T14:14:16.744Z,13.93
2019-04-23T14:17:18.002Z,14.28
2019-04-23T14:19:28.326Z,13.83
2019-04-23T14:22:31.275Z,15.20
2019-04-23T14:27:34.796Z,14.35
2019-04-23T14:30:29.871Z,14.25
2019-04-23T14:33:15.404Z,14.93
2019-04-23T14:40:57.486Z,16.17
2019-04-23T14:49:04.317Z,15.23
2019-04-23T14:54:18.891Z,18.02
2019-04-23T14:57:03.527Z,18.62
2019-04-23T14:59:21.393Z,18.75
2019-04-23T15:02:13.777Z,22.13
2019-04-23T15:04:56.432Z,21.57
2019-04-23T15:07:33.814Z,20.65
2019-04-23T15:10:18.557Z,22.00
2019-04-23T15:12:52.064Z,21.50
2019-04-23T15:15:27.034Z,21.55
2019-04-23T15:18:14.197Z,21.02
2019-04-23T15:21:23.792Z,21.42
2019-04-23T15:28:37.269Z,21.00
2019-04-23T15:31:41.270Z,21.45
2019-04-23T15:45:01.059Z,20.80
2019-04-23T15:47:39.924Z,21.55
2019-04-23T15:50:22.700Z,21.25
2019-04-23T15:55:34.128Z,24.47
2019-04-23T16:03:35.578Z,25.97
2019-04-23T16:06:16.555Z,23.55
2019-04-23T16:09:12.685Z,24.20
2019-04-23T16:11:53.062Z,24.40
2019-04-23T16:14:50.786Z,23.73
2019-04-23T16:17:27.822Z,23.45
2019-04-23T16:22:44.597Z,22.82
2019-04-23T16:25:43.110Z,22.58
2019-04-23T16:28:11.765Z,22.55
2019-04-23T16:31:00.125Z,25.82
2019-04-23T16:33:34.395Z,25.72
2019-04-23T16:36:19.775Z,24.45
2019-04-23T16:38:58.575Z,21.95
2019-04-23T16:41:32.576Z,21.30
2019-04-23T16:44:24.358Z,20.72
2019-04-23T16:46:56.246Z,20.75
2019-04-23T16:49:34.690Z,19.57
2019-04-23T16:52:20.070Z,19.45
2019-04-23T17:00:24.697Z,16.27
2019-04-23T17:03:02.662Z,16.97
2019-04-23T17:08:35.526Z,16.07
2019-04-23T17:13:30.438Z,15.95
2019-04-23T17:16:15.276Z,16.15
2019-04-23T17:18:56.301Z,15.28
2019-04-23T17:21:30.754Z,15.78
2019-04-23T17:27:05.488Z,17.45
2019-04-23T17:29:28.691Z,16.77
2019-04-23T17:32:09.812Z,18.07
2019-04-23T17:35:04.675Z,19.05
2019-04-23T17:37:40.560Z,19.10
2019-04-23T17:40:23.027Z,19.50
2019-04-23T17:43:08.918Z,18.90
2019-04-23T17:48:47.961Z,20.68
2019-04-23T17:51:25.972Z,18.32
2019-04-23T17:54:13.942Z,18.60
2019-04-23T17:57:02.949Z,17.77
2019-04-23T18:00:02.848Z,18.27
2019-04-23T18:02:49.921Z,19.42
2019-04-23T18:08:01.736Z,17.10
2019-04-23T18:10:27.610Z,15.45
2019-04-23T18:13:05.243Z,14.25
2019-04-23T18:15:49.655Z,15.23
2019-04-23T18:18:33.125Z,14.73
2019-04-23T18:21:37.690Z,14.47
2019-04-23T18:24:23.304Z,14.55
2019-04-23T18:29:55.342Z,14.03
2019-04-23T18:33:22.283Z,16.07
2019-04-23T18:38:23.616Z,16.30
2019-04-23T18:43:29.837Z,18.07
2019-04-23T18:51:32.022Z,16.57
2019-04-23T18:54:08.488Z,19.00
2019-04-23T18:57:06.411Z,19.17
2019-04-23T18:59:41.088Z,18.62
2019-04-23T19:02:44.872Z,17.52
2019-04-23T19:05:22.845Z,21.30
2019-04-23T19:11:09.130Z,20.88
2019-04-23T19:13:39.878Z,19.73
2019-04-23T19:16:24.466Z,19.77
2019-04-23T19:24:31.578Z,16.75
2019-04-23T19:27:19.036Z,18.00
2019-04-23T19:29:52.002Z,16.55
2019-04-23T19:32:41.520Z,16.42
2019-04-23T19:35:35.136Z,16.50
2019-04-23T19:40:43.287Z,16.85
2019-04-23T19:43:12.178Z,15.63
2019-04-23T19:46:09.631Z,15.75
2019-04-23T19:51:17.670Z,16.65
2019-04-23T19:56:39.666Z,18.57
2019-04-23T19:59:31.618Z,20.17
2019-04-23T20:01:55.347Z,19.82
2019-04-23T20:04:32.233Z,19.20
2019-04-23T20:12:30.290Z,17.75
2019-04-23T20:15:18.052Z,17.02
2019-04-23T20:17:43.327Z,17.40
2019-04-23T20:20:25.645Z,16.57
2019-04-23T20:23:03.665Z,15.75
2019-04-23T20:26:12.225Z,14.47
2019-04-23T20:32:06.121Z,14.30
2019-04-23T20:32:43.696Z,15.45
2019-04-23T20:34:31.300Z,14.18
2019-04-23T20:37:12.615Z,12.58
2019-04-23T20:39:45.501Z,12.78
2019-04-23T20:42:22.305Z,12.80
2019-04-23T20:44:59.083Z,13.58
2019-04-23T20:50:16.437Z,12.55
2019-04-23T20:52:52.883Z,12.28
2019-04-23T20:55:52.893Z,12.25
2019-04-23T20:58:40.750Z,12.18
2019-04-23T21:01:21.874Z,13.20
2019-04-23T21:04:11.683Z,13.35
2019-04-23T21:06:47.105Z,14.15
2019-04-23T21:09:28.309Z,13.78
2019-04-23T21:15:03.172Z,13.95
2019-04-23T21:17:20.917Z,13.50
2019-04-23T21:22:55.809Z,12.80
2019-04-23T21:25:14.598Z,14.07
2019-04-23T21:28:18.112Z,14.05
2019-04-23T21:31:19.730Z,13.40
2019-04-23T21:36:40.169Z,13.83
2019-04-23T21:39:34.347Z,13.68
2019-04-23T21:42:14.840Z,13.72
2019-04-23T21:44:52.800Z,22.90
2019-04-23T21:50:20.130Z,22.27
2019-04-23T21:52:54.851Z,13.03
2019-04-23T21:55:39.149Z,14.03
2019-04-23T22:03:49.630Z,14.85
2019-04-23T22:06:13.791Z,15.38
2019-04-23T22:08:52.433Z,15.35
2019-04-23T22:11:53.792Z,15.10
2019-04-23T22:14:09.678Z,15.83
2019-04-23T22:19:20.294Z,17.02
2019-04-23T22:22:28.218Z,16.02
2019-04-23T22:24:48.606Z,16.60
2019-04-23T22:27:26.130Z,14.18
2019-04-23T22:30:22.758Z,16.55
2019-04-23T22:33:02.946Z,16.25
2019-04-23T22:35:24.740Z,15.83
2019-04-23T22:40:49.510Z,16.45
2019-04-23T22:43:20.454Z,14.97
2019-04-23T22:46:05.371Z,14.10
2019-04-23T22:49:07.816Z,14.63
2019-04-23T22:51:43.767Z,14.07
2019-04-23T22:54:12.266Z,24.20
2019-04-23T23:02:30.321Z,15.08
2019-04-23T23:05:10.329Z,15.23
2019-04-23T23:10:19.967Z,14.07
2019-04-23T23:13:03.507Z,12.82
2019-04-23T23:15:41.721Z,13.40
2019-04-23T23:18:17.847Z,13.25
2019-04-23T23:23:52.949Z,12.98
2019-04-23T23:26:35.406Z,12.50
2019-04-23T23:28:55.361Z,13.95
2019-04-23T23:31:40.023Z,14.10
2019-04-23T23:34:15.372Z,13.35
2019-04-23T23:37:03.759Z,14.63
2019-04-23T23:40:06.101Z,15.32
2019-04-23T23:45:14.462Z,20.23
2019-04-23T23:47:37.894Z,22.02
2019-04-23T23:50:27.020Z,19.45
2019-04-23T23:53:04.295Z,20.05
2019-04-23T23:55:37.881Z,21.42
2019-04-23T23:58:15.007Z,24.15
